kkephart13
Topic Author
Posts: 92
Joined: Mon Jun 11, 2012 3:08 pm

Small Plane Crash In Jackson MS.

Wed Nov 14, 2012 3:18 pm

Prayers to those affected on the Piper PA-32. After reading it, seems like fuel starvation.


http://news.msn.com/us/small-plane-c...es-into-neighborhood-house-on-fire
EVERYTHING i type on here, is the opinion of ME and not of any airline/company.
 
njxc500
Posts: 194
Joined: Mon Dec 24, 2007 6:47 pm

RE: Small Plane Crash In Jackson MS.

Wed Nov 14, 2012 4:18 pm

RIP to those on board and condolences to the families.

We will however avoid suggesting that fuel starvation is more likely than mechanical failure. Many things can cause sputtering as was witnessed according to the article.

Weather at the time was good.

KJAN 130954Z 34003KT 10SM CLR 02/M01 A3045

Who is online

Users browsing this forum: beachba, cleared2land, David L, Google [Bot], greg787, hvusslax, joaof, kzba, nb7760, OldAeroGuy, pedrinch, Planesmart, qf002, SamoNYC, speedygonzales, StTim and 371 guests